sensor_id;sensor_type;location;lat;lon;timestamp;P1;durP1;ratioP1;P2;durP2;ratioP2
26512;SDS011;14186;53.822;10.152;2023-05-10T00:02:21;8.43;;;3.10;;
26512;SDS011;14186;53.822;10.152;2023-05-10T00:07:23;6.43;;;3.13;;
26512;SDS011;14186;53.822;10.152;2023-05-10T00:12:23;5.03;;;2.25;;
26512;SDS011;14186;53.822;10.152;2023-05-10T00:17:23;6.70;;;2.95;;
26512;SDS011;14186;53.822;10.152;2023-05-10T00:22:25;3.85;;;2.75;;
26512;SDS011;14186;53.822;10.152;2023-05-10T00:27:25;6.97;;;2.95;;
26512;SDS011;14186;53.822;10.152;2023-05-10T00:32:25;7.05;;;3.28;;
26512;SDS011;14186;53.822;10.152;2023-05-10T00:37:27;5.00;;;3.00;;
26512;SDS011;14186;53.822;10.152;2023-05-10T00:42:27;6.95;;;4.85;;
26512;SDS011;14186;53.822;10.152;2023-05-10T00:47:27;6.78;;;3.20;;
26512;SDS011;14186;53.822;10.152;2023-05-10T00:52:29;5.40;;;3.20;;
26512;SDS011;14186;53.822;10.152;2023-05-10T00:57:29;5.43;;;3.40;;
26512;SDS011;14186;53.822;10.152;2023-05-10T01:02:29;5.90;;;3.00;;
26512;SDS011;14186;53.822;10.152;2023-05-10T01:07:31;7.63;;;3.13;;
26512;SDS011;14186;53.822;10.152;2023-05-10T01:12:31;5.65;;;3.10;;
26512;SDS011;14186;53.822;10.152;2023-05-10T01:17:31;9.63;;;3.70;;
26512;SDS011;14186;53.822;10.152;2023-05-10T01:22:39;6.65;;;3.00;;
26512;SDS011;14186;53.822;10.152;2023-05-10T01:27:47;9.68;;;3.03;;
26512;SDS011;14186;53.822;10.152;2023-05-10T01:32:55;7.10;;;3.08;;
26512;SDS011;14186;53.822;10.152;2023-05-10T01:37:59;7.72;;;3.10;;
26512;SDS011;14186;53.822;10.152;2023-05-10T01:43:00;4.70;;;3.50;;
26512;SDS011;14186;53.822;10.152;2023-05-10T01:48:05;7.40;;;3.25;;
26512;SDS011;14186;53.822;10.152;2023-05-10T01:53:06;8.85;;;3.97;;
26512;SDS011;14186;53.822;10.152;2023-05-10T01:58:08;5.28;;;2.95;;
26512;SDS011;14186;53.822;10.152;2023-05-10T02:03:10;8.20;;;3.47;;
26512;SDS011;14186;53.822;10.152;2023-05-10T02:08:11;7.15;;;3.40;;
26512;SDS011;14186;53.822;10.152;2023-05-10T02:13:11;7.20;;;3.90;;
26512;SDS011;14186;53.822;10.152;2023-05-10T02:18:14;7.45;;;3.35;;
26512;SDS011;14186;53.822;10.152;2023-05-10T02:23:14;6.88;;;3.58;;
26512;SDS011;14186;53.822;10.152;2023-05-10T02:28:16;6.40;;;2.92;;
26512;SDS011;14186;53.822;10.152;2023-05-10T02:33:18;10.40;;;3.70;;
26512;SDS011;14186;53.822;10.152;2023-05-10T02:38:19;8.48;;;3.70;;
26512;SDS011;14186;53.822;10.152;2023-05-10T02:43:20;8.48;;;3.50;;
26512;SDS011;14186;53.822;10.152;2023-05-10T02:48:24;5.82;;;3.80;;
26512;SDS011;14186;53.822;10.152;2023-05-10T02:53:27;6.85;;;3.78;;
26512;SDS011;14186;53.822;10.152;2023-05-10T02:58:29;5.55;;;3.40;;
26512;SDS011;14186;53.822;10.152;2023-05-10T03:03:31;4.38;;;3.30;;
26512;SDS011;14186;53.822;10.152;2023-05-10T03:08:31;6.95;;;4.10;;
26512;SDS011;14186;53.822;10.152;2023-05-10T03:13:31;8.73;;;3.80;;
26512;SDS011;14186;53.822;10.152;2023-05-10T03:18:40;5.88;;;3.60;;
26512;SDS011;14186;53.822;10.152;2023-05-10T03:23:43;6.38;;;3.75;;
26512;SDS011;14186;53.822;10.152;2023-05-10T03:28:43;5.63;;;3.63;;
26512;SDS011;14186;53.822;10.152;2023-05-10T03:33:47;6.10;;;3.55;;
26512;SDS011;14186;53.822;10.152;2023-05-10T03:38:47;7.88;;;4.28;;
26512;SDS011;14186;53.822;10.152;2023-05-10T03:43:47;8.45;;;3.20;;
26512;SDS011;14186;53.822;10.152;2023-05-10T03:48:49;7.28;;;3.67;;
26512;SDS011;14186;53.822;10.152;2023-05-10T03:53:49;8.05;;;3.85;;
26512;SDS011;14186;53.822;10.152;2023-05-10T03:58:49;6.00;;;3.45;;
26512;SDS011;14186;53.822;10.152;2023-05-10T04:03:51;5.80;;;3.70;;
26512;SDS011;14186;53.822;10.152;2023-05-10T04:08:51;6.65;;;3.50;;
26512;SDS011;14186;53.822;10.152;2023-05-10T04:13:51;7.22;;;3.47;;
26512;SDS011;14186;53.822;10.152;2023-05-10T04:18:53;5.85;;;3.63;;
26512;SDS011;14186;53.822;10.152;2023-05-10T04:23:53;8.50;;;3.13;;
26512;SDS011;14186;53.822;10.152;2023-05-10T04:28:53;4.75;;;2.88;;
26512;SDS011;14186;53.822;10.152;2023-05-10T04:33:54;5.18;;;3.30;;
26512;SDS011;14186;53.822;10.152;2023-05-10T04:38:55;8.88;;;4.50;;
26512;SDS011;14186;53.822;10.152;2023-05-10T04:43:55;6.20;;;3.03;;
26512;SDS011;14186;53.822;10.152;2023-05-10T04:48:57;6.55;;;3.55;;
26512;SDS011;14186;53.822;10.152;2023-05-10T04:53:57;4.43;;;2.83;;
26512;SDS011;14186;53.822;10.152;2023-05-10T04:58:57;4.80;;;3.17;;
26512;SDS011;14186;53.822;10.152;2023-05-10T05:03:58;5.43;;;3.13;;
26512;SDS011;14186;53.822;10.152;2023-05-10T05:08:59;9.40;;;3.80;;
26512;SDS011;14186;53.822;10.152;2023-05-10T05:13:59;4.22;;;2.95;;
26512;SDS011;14186;53.822;10.152;2023-05-10T05:19:00;6.80;;;3.65;;
26512;SDS011;14186;53.822;10.152;2023-05-10T05:24:01;4.82;;;3.25;;
26512;SDS011;14186;53.822;10.152;2023-05-10T05:29:01;5.07;;;3.42;;
26512;SDS011;14186;53.822;10.152;2023-05-10T05:34:02;6.60;;;3.38;;
26512;SDS011;14186;53.822;10.152;2023-05-10T05:39:03;6.30;;;3.60;;
26512;SDS011;14186;53.822;10.152;2023-05-10T05:44:03;5.22;;;3.60;;
26512;SDS011;14186;53.822;10.152;2023-05-10T05:49:04;7.30;;;3.50;;
26512;SDS011;14186;53.822;10.152;2023-05-10T05:54:05;5.88;;;3.55;;
26512;SDS011;14186;53.822;10.152;2023-05-10T05:59:05;7.82;;;3.50;;
26512;SDS011;14186;53.822;10.152;2023-05-10T06:04:06;6.30;;;3.83;;
26512;SDS011;14186;53.822;10.152;2023-05-10T06:09:07;5.68;;;3.42;;
26512;SDS011;14186;53.822;10.152;2023-05-10T06:14:07;11.50;;;3.47;;
26512;SDS011;14186;53.822;10.152;2023-05-10T06:19:08;9.48;;;3.63;;
26512;SDS011;14186;53.822;10.152;2023-05-10T06:24:09;7.32;;;3.90;;
26512;SDS011;14186;53.822;10.152;2023-05-10T06:29:09;9.00;;;3.90;;
26512;SDS011;14186;53.822;10.152;2023-05-10T06:34:10;5.53;;;3.60;;
26512;SDS011;14186;53.822;10.152;2023-05-10T06:39:10;7.68;;;3.67;;
26512;SDS011;14186;53.822;10.152;2023-05-10T06:44:11;4.88;;;3.13;;
26512;SDS011;14186;53.822;10.152;2023-05-10T06:49:12;5.72;;;3.05;;
26512;SDS011;14186;53.822;10.152;2023-05-10T06:54:12;7.40;;;3.47;;
26512;SDS011;14186;53.822;10.152;2023-05-10T06:59:13;7.40;;;3.65;;
26512;SDS011;14186;53.822;10.152;2023-05-10T07:04:14;6.22;;;3.78;;
26512;SDS011;14186;53.822;10.152;2023-05-10T07:09:14;4.93;;;3.30;;
26512;SDS011;14186;53.822;10.152;2023-05-10T07:14:15;6.07;;;3.83;;
26512;SDS011;14186;53.822;10.152;2023-05-10T07:19:16;4.78;;;3.05;;
26512;SDS011;14186;53.822;10.152;2023-05-10T07:24:16;5.07;;;3.65;;
26512;SDS011;14186;53.822;10.152;2023-05-10T07:29:17;6.03;;;3.30;;
26512;SDS011;14186;53.822;10.152;2023-05-10T07:34:18;6.63;;;3.15;;
26512;SDS011;14186;53.822;10.152;2023-05-10T07:39:18;6.28;;;3.78;;
26512;SDS011;14186;53.822;10.152;2023-05-10T07:44:18;8.30;;;3.42;;
26512;SDS011;14186;53.822;10.152;2023-05-10T07:49:20;6.68;;;3.85;;
26512;SDS011;14186;53.822;10.152;2023-05-10T07:54:20;5.35;;;3.47;;
26512;SDS011;14186;53.822;10.152;2023-05-10T07:59:20;5.60;;;3.40;;
26512;SDS011;14186;53.822;10.152;2023-05-10T08:04:22;6.00;;;3.22;;
26512;SDS011;14186;53.822;10.152;2023-05-10T08:09:22;6.68;;;3.85;;
26512;SDS011;14186;53.822;10.152;2023-05-10T08:14:22;6.57;;;3.30;;
26512;SDS011;14186;53.822;10.152;2023-05-10T08:19:24;6.20;;;3.42;;
26512;SDS011;14186;53.822;10.152;2023-05-10T08:24:24;5.30;;;3.53;;
26512;SDS011;14186;53.822;10.152;2023-05-10T08:29:24;7.20;;;3.88;;
26512;SDS011;14186;53.822;10.152;2023-05-10T08:34:26;6.57;;;3.80;;
26512;SDS011;14186;53.822;10.152;2023-05-10T08:39:26;5.63;;;3.70;;
26512;SDS011;14186;53.822;10.152;2023-05-10T08:44:26;7.80;;;4.18;;
26512;SDS011;14186;53.822;10.152;2023-05-10T08:49:28;5.25;;;3.55;;
26512;SDS011;14186;53.822;10.152;2023-05-10T08:54:31;4.97;;;3.10;;
26512;SDS011;14186;53.822;10.152;2023-05-10T08:59:31;4.35;;;3.50;;
26512;SDS011;14186;53.822;10.152;2023-05-10T09:04:33;5.35;;;3.65;;
26512;SDS011;14186;53.822;10.152;2023-05-10T09:09:33;5.47;;;3.72;;
26512;SDS011;14186;53.822;10.152;2023-05-10T09:14:34;4.70;;;3.35;;
26512;SDS011;14186;53.822;10.152;2023-05-10T09:19:36;4.57;;;2.92;;
26512;SDS011;14186;53.822;10.152;2023-05-10T09:24:36;6.05;;;3.67;;
26512;SDS011;14186;53.822;10.152;2023-05-10T09:29:40;5.72;;;3.60;;
26512;SDS011;14186;53.822;10.152;2023-05-10T09:34:42;5.47;;;3.53;;
26512;SDS011;14186;53.822;10.152;2023-05-10T09:39:42;6.32;;;3.53;;
26512;SDS011;14186;53.822;10.152;2023-05-10T09:44:42;5.95;;;3.42;;
26512;SDS011;14186;53.822;10.152;2023-05-10T09:49:44;7.80;;;3.50;;
26512;SDS011;14186;53.822;10.152;2023-05-10T09:54:45;6.07;;;3.60;;
26512;SDS011;14186;53.822;10.152;2023-05-10T09:59:51;7.03;;;4.05;;
26512;SDS011;14186;53.822;10.152;2023-05-10T10:04:53;6.15;;;3.58;;
26512;SDS011;14186;53.822;10.152;2023-05-10T10:09:53;7.93;;;3.83;;
26512;SDS011;14186;53.822;10.152;2023-05-10T10:14:53;5.47;;;3.80;;
26512;SDS011;14186;53.822;10.152;2023-05-10T10:19:56;5.32;;;3.00;;
26512;SDS011;14186;53.822;10.152;2023-05-10T10:24:57;7.82;;;2.97;;
26512;SDS011;14186;53.822;10.152;2023-05-10T10:29:59;5.43;;;3.55;;
26512;SDS011;14186;53.822;10.152;2023-05-10T10:35:05;5.80;;;3.40;;
26512;SDS011;14186;53.822;10.152;2023-05-10T10:45:21;7.43;;;3.33;;
26512;SDS011;14186;53.822;10.152;2023-05-10T10:50:23;7.65;;;4.22;;
26512;SDS011;14186;53.822;10.152;2023-05-10T10:55:24;7.97;;;4.22;;
26512;SDS011;14186;53.822;10.152;2023-05-10T11:00:25;8.13;;;4.82;;
26512;SDS011;14186;53.822;10.152;2023-05-10T11:05:34;7.57;;;4.65;;
26512;SDS011;14186;53.822;10.152;2023-05-10T11:10:35;7.15;;;4.30;;
26512;SDS011;14186;53.822;10.152;2023-05-10T11:15:36;6.45;;;4.60;;
26512;SDS011;14186;53.822;10.152;2023-05-10T11:20:39;9.00;;;4.78;;
26512;SDS011;14186;53.822;10.152;2023-05-10T11:25:40;12.40;;;6.90;;
26512;SDS011;14186;53.822;10.152;2023-05-10T11:30:41;9.95;;;7.03;;
26512;SDS011;14186;53.822;10.152;2023-05-10T11:35:43;8.68;;;6.30;;
26512;SDS011;14186;53.822;10.152;2023-05-10T11:40:43;12.57;;;6.70;;
26512;SDS011;14186;53.822;10.152;2023-05-10T11:45:43;10.50;;;7.18;;
26512;SDS011;14186;53.822;10.152;2023-05-10T11:50:46;10.15;;;5.82;;
26512;SDS011;14186;53.822;10.152;2023-05-10T11:55:46;8.98;;;6.13;;
26512;SDS011;14186;53.822;10.152;2023-05-10T12:00:47;8.88;;;5.93;;
26512;SDS011;14186;53.822;10.152;2023-05-10T12:05:49;10.10;;;6.63;;
26512;SDS011;14186;53.822;10.152;2023-05-10T12:10:49;8.93;;;6.28;;
26512;SDS011;14186;53.822;10.152;2023-05-10T12:15:49;9.17;;;6.50;;
26512;SDS011;14186;53.822;10.152;2023-05-10T12:20:52;9.55;;;5.40;;
26512;SDS011;14186;53.822;10.152;2023-05-10T12:25:53;9.18;;;6.20;;
26512;SDS011;14186;53.822;10.152;2023-05-10T12:30:53;7.75;;;5.90;;
26512;SDS011;14186;53.822;10.152;2023-05-10T12:35:54;9.02;;;6.75;;
26512;SDS011;14186;53.822;10.152;2023-05-10T12:40:55;10.93;;;6.07;;
26512;SDS011;14186;53.822;10.152;2023-05-10T12:45:55;8.73;;;6.15;;
26512;SDS011;14186;53.822;10.152;2023-05-10T12:50:57;9.57;;;6.10;;
26512;SDS011;14186;53.822;10.152;2023-05-10T12:55:57;9.35;;;6.38;;
26512;SDS011;14186;53.822;10.152;2023-05-10T13:00:57;9.77;;;6.45;;
26512;SDS011;14186;53.822;10.152;2023-05-10T13:05:59;7.53;;;5.40;;
26512;SDS011;14186;53.822;10.152;2023-05-10T13:10:59;9.05;;;6.60;;
26512;SDS011;14186;53.822;10.152;2023-05-10T13:15:59;12.27;;;7.20;;
26512;SDS011;14186;53.822;10.152;2023-05-10T13:21:01;10.18;;;7.75;;
26512;SDS011;14186;53.822;10.152;2023-05-10T13:26:01;9.25;;;7.80;;
26512;SDS011;14186;53.822;10.152;2023-05-10T13:31:01;9.10;;;7.53;;
26512;SDS011;14186;53.822;10.152;2023-05-10T13:36:03;10.45;;;8.25;;
26512;SDS011;14186;53.822;10.152;2023-05-10T13:41:03;9.70;;;7.68;;
26512;SDS011;14186;53.822;10.152;2023-05-10T13:46:03;7.80;;;6.27;;
26512;SDS011;14186;53.822;10.152;2023-05-10T13:51:05;7.87;;;5.87;;
26512;SDS011;14186;53.822;10.152;2023-05-10T13:56:05;8.57;;;6.32;;
26512;SDS011;14186;53.822;10.152;2023-05-10T14:01:06;6.57;;;4.60;;
26512;SDS011;14186;53.822;10.152;2023-05-10T14:06:07;6.60;;;4.18;;
26512;SDS011;14186;53.822;10.152;2023-05-10T14:11:07;5.35;;;3.63;;
26512;SDS011;14186;53.822;10.152;2023-05-10T14:16:08;4.95;;;4.07;;
26512;SDS011;14186;53.822;10.152;2023-05-10T14:21:09;5.15;;;3.97;;
26512;SDS011;14186;53.822;10.152;2023-05-10T14:26:09;5.22;;;4.35;;
26512;SDS011;14186;53.822;10.152;2023-05-10T14:31:10;6.40;;;4.20;;
26512;SDS011;14186;53.822;10.152;2023-05-10T14:36:11;5.32;;;3.63;;
26512;SDS011;14186;53.822;10.152;2023-05-10T14:41:12;4.70;;;3.17;;
26512;SDS011;14186;53.822;10.152;2023-05-10T14:46:12;4.85;;;3.25;;
26512;SDS011;14186;53.822;10.152;2023-05-10T14:51:13;4.72;;;3.53;;
26512;SDS011;14186;53.822;10.152;2023-05-10T14:56:13;6.68;;;3.42;;
26512;SDS011;14186;53.822;10.152;2023-05-10T15:01:14;4.55;;;3.85;;
26512;SDS011;14186;53.822;10.152;2023-05-10T15:06:15;5.10;;;3.65;;
26512;SDS011;14186;53.822;10.152;2023-05-10T15:11:15;6.03;;;3.85;;
26512;SDS011;14186;53.822;10.152;2023-05-10T15:16:16;5.50;;;3.78;;
26512;SDS011;14186;53.822;10.152;2023-05-10T15:21:17;6.53;;;3.70;;
26512;SDS011;14186;53.822;10.152;2023-05-10T15:26:17;6.25;;;3.45;;
26512;SDS011;14186;53.822;10.152;2023-05-10T15:31:18;4.55;;;3.83;;
26512;SDS011;14186;53.822;10.152;2023-05-10T15:36:19;4.07;;;3.20;;
26512;SDS011;14186;53.822;10.152;2023-05-10T15:41:19;5.00;;;3.80;;
26512;SDS011;14186;53.822;10.152;2023-05-10T15:46:19;5.43;;;3.40;;
26512;SDS011;14186;53.822;10.152;2023-05-10T15:51:21;6.97;;;3.75;;
26512;SDS011;14186;53.822;10.152;2023-05-10T15:56:21;4.72;;;3.47;;
26512;SDS011;14186;53.822;10.152;2023-05-10T16:01:21;3.60;;;2.97;;
26512;SDS011;14186;53.822;10.152;2023-05-10T16:06:23;5.18;;;3.30;;
26512;SDS011;14186;53.822;10.152;2023-05-10T16:11:23;5.20;;;3.38;;
26512;SDS011;14186;53.822;10.152;2023-05-10T16:16:23;5.45;;;3.00;;
26512;SDS011;14186;53.822;10.152;2023-05-10T16:21:25;5.70;;;3.60;;
26512;SDS011;14186;53.822;10.152;2023-05-10T16:26:25;5.55;;;3.42;;
26512;SDS011;14186;53.822;10.152;2023-05-10T16:31:25;4.15;;;3.53;;
26512;SDS011;14186;53.822;10.152;2023-05-10T16:36:27;4.72;;;3.15;;
26512;SDS011;14186;53.822;10.152;2023-05-10T16:41:27;4.20;;;3.40;;
26512;SDS011;14186;53.822;10.152;2023-05-10T16:46:27;4.72;;;3.58;;
26512;SDS011;14186;53.822;10.152;2023-05-10T16:51:29;4.60;;;3.40;;
26512;SDS011;14186;53.822;10.152;2023-05-10T16:56:29;4.07;;;2.75;;
26512;SDS011;14186;53.822;10.152;2023-05-10T17:01:29;4.63;;;3.33;;
26512;SDS011;14186;53.822;10.152;2023-05-10T17:06:31;4.55;;;3.33;;
26512;SDS011;14186;53.822;10.152;2023-05-10T17:11:31;5.22;;;3.63;;
26512;SDS011;14186;53.822;10.152;2023-05-10T17:16:31;4.43;;;3.65;;
26512;SDS011;14186;53.822;10.152;2023-05-10T17:21:33;6.05;;;3.40;;
26512;SDS011;14186;53.822;10.152;2023-05-10T17:26:33;7.78;;;4.75;;
26512;SDS011;14186;53.822;10.152;2023-05-10T17:31:33;6.63;;;4.75;;
26512;SDS011;14186;53.822;10.152;2023-05-10T17:36:35;8.18;;;5.88;;
26512;SDS011;14186;53.822;10.152;2023-05-10T17:41:35;7.28;;;5.70;;
26512;SDS011;14186;53.822;10.152;2023-05-10T17:46:35;7.90;;;5.85;;
26512;SDS011;14186;53.822;10.152;2023-05-10T17:51:37;8.95;;;6.72;;
26512;SDS011;14186;53.822;10.152;2023-05-10T17:56:37;6.30;;;5.10;;
26512;SDS011;14186;53.822;10.152;2023-05-10T18:01:37;9.70;;;5.43;;
26512;SDS011;14186;53.822;10.152;2023-05-10T18:06:39;6.35;;;4.72;;
26512;SDS011;14186;53.822;10.152;2023-05-10T18:11:39;6.93;;;4.57;;
26512;SDS011;14186;53.822;10.152;2023-05-10T18:16:39;5.80;;;4.45;;
26512;SDS011;14186;53.822;10.152;2023-05-10T18:21:41;4.30;;;3.55;;
26512;SDS011;14186;53.822;10.152;2023-05-10T18:26:41;4.35;;;2.60;;
26512;SDS011;14186;53.822;10.152;2023-05-10T18:31:41;4.07;;;3.00;;
26512;SDS011;14186;53.822;10.152;2023-05-10T18:36:43;5.95;;;4.43;;
26512;SDS011;14186;53.822;10.152;2023-05-10T18:41:43;6.25;;;4.65;;
26512;SDS011;14186;53.822;10.152;2023-05-10T18:46:43;7.32;;;5.38;;
26512;SDS011;14186;53.822;10.152;2023-05-10T18:51:45;8.25;;;6.00;;
26512;SDS011;14186;53.822;10.152;2023-05-10T18:56:45;10.48;;;8.55;;
26512;SDS011;14186;53.822;10.152;2023-05-10T19:01:45;14.25;;;10.65;;
26512;SDS011;14186;53.822;10.152;2023-05-10T19:06:47;18.15;;;12.02;;
26512;SDS011;14186;53.822;10.152;2023-05-10T19:11:47;15.50;;;11.23;;
26512;SDS011;14186;53.822;10.152;2023-05-10T19:16:47;17.63;;;12.13;;
26512;SDS011;14186;53.822;10.152;2023-05-10T19:21:49;18.02;;;12.00;;
26512;SDS011;14186;53.822;10.152;2023-05-10T19:26:49;17.95;;;11.85;;
26512;SDS011;14186;53.822;10.152;2023-05-10T19:31:49;19.88;;;12.77;;
26512;SDS011;14186;53.822;10.152;2023-05-10T19:36:51;16.45;;;11.23;;
26512;SDS011;14186;53.822;10.152;2023-05-10T19:41:51;16.85;;;11.00;;
26512;SDS011;14186;53.822;10.152;2023-05-10T19:46:51;14.85;;;9.13;;
26512;SDS011;14186;53.822;10.152;2023-05-10T19:51:53;15.10;;;10.30;;
26512;SDS011;14186;53.822;10.152;2023-05-10T19:56:53;17.48;;;11.10;;
26512;SDS011;14186;53.822;10.152;2023-05-10T20:01:53;16.58;;;10.63;;
26512;SDS011;14186;53.822;10.152;2023-05-10T20:06:55;15.85;;;10.38;;
26512;SDS011;14186;53.822;10.152;2023-05-10T20:11:55;17.38;;;11.35;;
26512;SDS011;14186;53.822;10.152;2023-05-10T20:16:55;17.40;;;11.45;;
26512;SDS011;14186;53.822;10.152;2023-05-10T20:21:57;15.98;;;11.00;;
26512;SDS011;14186;53.822;10.152;2023-05-10T20:26:57;15.88;;;10.93;;
26512;SDS011;14186;53.822;10.152;2023-05-10T20:31:57;17.25;;;12.32;;
26512;SDS011;14186;53.822;10.152;2023-05-10T20:36:59;18.40;;;12.65;;
26512;SDS011;14186;53.822;10.152;2023-05-10T20:41:59;19.63;;;12.88;;
26512;SDS011;14186;53.822;10.152;2023-05-10T20:46:59;17.45;;;12.88;;
26512;SDS011;14186;53.822;10.152;2023-05-10T20:52:01;14.23;;;10.60;;
26512;SDS011;14186;53.822;10.152;2023-05-10T20:57:01;10.35;;;6.38;;
26512;SDS011;14186;53.822;10.152;2023-05-10T21:02:01;9.13;;;6.18;;
26512;SDS011;14186;53.822;10.152;2023-05-10T21:07:03;9.10;;;6.05;;
26512;SDS011;14186;53.822;10.152;2023-05-10T21:12:03;9.13;;;6.82;;
26512;SDS011;14186;53.822;10.152;2023-05-10T21:17:03;11.53;;;7.20;;
26512;SDS011;14186;53.822;10.152;2023-05-10T21:22:05;9.55;;;6.97;;
26512;SDS011;14186;53.822;10.152;2023-05-10T21:27:05;10.73;;;7.50;;
26512;SDS011;14186;53.822;10.152;2023-05-10T21:32:05;15.13;;;7.85;;
26512;SDS011;14186;53.822;10.152;2023-05-10T21:37:07;10.52;;;7.55;;
26512;SDS011;14186;53.822;10.152;2023-05-10T21:42:07;11.02;;;7.13;;
26512;SDS011;14186;53.822;10.152;2023-05-10T21:47:07;13.85;;;6.40;;
26512;SDS011;14186;53.822;10.152;2023-05-10T21:52:09;10.57;;;6.88;;
26512;SDS011;14186;53.822;10.152;2023-05-10T21:57:09;12.10;;;7.18;;
26512;SDS011;14186;53.822;10.152;2023-05-10T22:02:09;12.52;;;7.05;;
26512;SDS011;14186;53.822;10.152;2023-05-10T22:07:11;11.45;;;7.35;;
26512;SDS011;14186;53.822;10.152;2023-05-10T22:12:11;12.13;;;6.63;;
26512;SDS011;14186;53.822;10.152;2023-05-10T22:17:11;10.10;;;6.20;;
26512;SDS011;14186;53.822;10.152;2023-05-10T22:22:13;11.90;;;6.80;;
26512;SDS011;14186;53.822;10.152;2023-05-10T22:27:13;11.77;;;6.68;;
26512;SDS011;14186;53.822;10.152;2023-05-10T22:32:13;11.57;;;6.72;;
26512;SDS011;14186;53.822;10.152;2023-05-10T22:37:14;12.57;;;7.13;;
26512;SDS011;14186;53.822;10.152;2023-05-10T22:42:15;13.10;;;7.70;;
26512;SDS011;14186;53.822;10.152;2023-05-10T22:47:15;14.07;;;8.25;;
26512;SDS011;14186;53.822;10.152;2023-05-10T22:52:16;15.00;;;8.13;;
26512;SDS011;14186;53.822;10.152;2023-05-10T22:57:17;15.68;;;9.32;;
26512;SDS011;14186;53.822;10.152;2023-05-10T23:02:17;18.25;;;11.13;;
26512;SDS011;14186;53.822;10.152;2023-05-10T23:07:18;22.15;;;12.75;;
26512;SDS011;14186;53.822;10.152;2023-05-10T23:12:18;24.52;;;12.75;;
26512;SDS011;14186;53.822;10.152;2023-05-10T23:17:19;25.15;;;13.65;;
26512;SDS011;14186;53.822;10.152;2023-05-10T23:22:20;24.30;;;14.27;;
26512;SDS011;14186;53.822;10.152;2023-05-10T23:27:20;24.38;;;13.25;;
26512;SDS011;14186;53.822;10.152;2023-05-10T23:32:21;24.63;;;13.63;;
26512;SDS011;14186;53.822;10.152;2023-05-10T23:37:22;23.17;;;14.80;;
26512;SDS011;14186;53.822;10.152;2023-05-10T23:42:22;23.42;;;13.05;;
26512;SDS011;14186;53.822;10.152;2023-05-10T23:47:22;24.65;;;14.60;;
26512;SDS011;14186;53.822;10.152;2023-05-10T23:52:24;23.95;;;13.13;;
26512;SDS011;14186;53.822;10.152;2023-05-10T23:57:24;27.83;;;14.70;;
